createdAt,value
2022-10-08T00:01:16.374Z,10.50
2022-10-08T00:03:20.354Z,10.32
2022-10-08T00:05:23.005Z,10.30
2022-10-08T00:07:26.986Z,10.02
2022-10-08T00:09:29.647Z,10.65
2022-10-08T00:11:34.360Z,9.73
2022-10-08T00:13:41.580Z,10.13
2022-10-08T00:15:44.215Z,10.50
2022-10-08T00:17:46.893Z,9.02
2022-10-08T00:19:49.676Z,10.18
2022-10-08T00:21:56.838Z,8.88
2022-10-08T00:24:02.311Z,8.60
2022-10-08T00:26:07.060Z,9.75
2022-10-08T00:28:10.844Z,10.68
2022-10-08T00:30:14.347Z,9.35
2022-10-08T00:32:19.851Z,10.55
2022-10-08T00:34:24.350Z,8.70
2022-10-08T00:36:31.919Z,8.73
2022-10-08T00:38:34.629Z,8.65
2022-10-08T00:40:44.732Z,8.23
2022-10-08T00:42:47.573Z,9.13
2022-10-08T00:44:55.188Z,8.68
2022-10-08T00:46:57.888Z,9.23
2022-10-08T00:49:04.113Z,8.32
2022-10-08T00:51:06.919Z,8.27
2022-10-08T00:53:10.809Z,8.43
2022-10-08T00:55:16.113Z,8.48
2022-10-08T00:57:20.633Z,9.68
2022-10-08T00:59:23.377Z,8.48
2022-10-08T01:01:26.069Z,9.32
2022-10-08T01:03:28.727Z,8.50
2022-10-08T01:05:43.660Z,9.48
2022-10-08T01:07:52.390Z,8.85
2022-10-08T01:10:03.937Z,9.35
2022-10-08T01:12:15.676Z,8.73
2022-10-08T01:14:34.106Z,9.25
2022-10-08T01:18:53.829Z,9.05
2022-10-08T01:21:06.814Z,9.05
2022-10-08T01:23:40.492Z,8.95
2022-10-08T01:25:53.425Z,9.35
2022-10-08T01:28:01.971Z,9.13
2022-10-08T01:30:10.801Z,9.35
2022-10-08T01:32:16.962Z,10.18
2022-10-08T01:34:26.732Z,9.20
2022-10-08T01:36:35.541Z,9.43
2022-10-08T01:38:43.016Z,10.13
2022-10-08T01:40:48.085Z,10.32
2022-10-08T01:42:54.200Z,10.15
2022-10-08T01:45:02.720Z,10.48
2022-10-08T01:47:08.589Z,10.05
2022-10-08T01:49:16.844Z,9.75
2022-10-08T01:51:23.585Z,9.80
2022-10-08T01:53:30.951Z,10.15
2022-10-08T01:55:37.414Z,9.88
2022-10-08T01:57:41.177Z,9.90
2022-10-08T01:59:46.442Z,10.27
2022-10-08T02:01:57.994Z,9.27
2022-10-08T02:04:18.315Z,8.68
2022-10-08T02:06:21.311Z,9.48
2022-10-08T02:08:24.441Z,8.55
2022-10-08T02:10:27.555Z,8.90
2022-10-08T02:12:31.203Z,8.85
2022-10-08T02:14:36.526Z,9.35
2022-10-08T02:16:45.872Z,9.30
2022-10-08T02:18:58.655Z,9.82
2022-10-08T02:21:05.152Z,8.73
2022-10-08T02:23:15.012Z,9.88
2022-10-08T02:25:25.542Z,7.82
2022-10-08T02:27:35.874Z,8.93
2022-10-08T02:29:42.663Z,9.23
2022-10-08T02:31:51.007Z,8.73
2022-10-08T02:34:01.077Z,8.48
2022-10-08T02:36:07.319Z,9.18
2022-10-08T02:38:14.811Z,9.02
2022-10-08T02:40:19.572Z,8.80
2022-10-08T02:42:25.487Z,9.65
2022-10-08T02:44:34.052Z,10.05
2022-10-08T02:46:41.452Z,9.35
2022-10-08T02:48:50.993Z,9.75
2022-10-08T02:50:58.478Z,9.63
2022-10-08T02:53:01.893Z,9.23
2022-10-08T02:55:12.941Z,9.25
2022-10-08T02:57:20.109Z,8.90
2022-10-08T02:59:23.854Z,9.57
2022-10-08T03:01:36.882Z,9.27
2022-10-08T03:03:47.443Z,8.70
2022-10-08T03:05:52.561Z,8.00
2022-10-08T03:07:57.669Z,8.02
2022-10-08T03:10:05.452Z,7.68
2022-10-08T03:12:08.590Z,8.07
2022-10-08T03:14:14.699Z,7.32
2022-10-08T03:16:21.915Z,7.45
2022-10-08T03:18:26.007Z,7.57
2022-10-08T03:20:30.328Z,7.72
2022-10-08T03:22:34.213Z,6.90
2022-10-08T03:24:38.313Z,8.32
2022-10-08T03:26:41.607Z,7.35
2022-10-08T03:28:44.393Z,7.00
2022-10-08T03:30:47.558Z,7.68
2022-10-08T03:32:50.274Z,7.63
2022-10-08T03:34:53.426Z,6.90
2022-10-08T03:36:56.018Z,7.45
2022-10-08T03:38:58.830Z,7.70
2022-10-08T03:41:02.816Z,7.05
2022-10-08T03:43:05.385Z,7.55
2022-10-08T03:45:08.573Z,6.03
2022-10-08T03:47:11.133Z,6.45
2022-10-08T03:49:13.754Z,6.53
2022-10-08T03:51:16.849Z,6.80
2022-10-08T03:53:19.457Z,7.00
2022-10-08T03:55:22.031Z,6.38
2022-10-08T03:57:25.954Z,6.35
2022-10-08T03:59:28.641Z,6.60
2022-10-08T04:01:31.714Z,6.40
2022-10-08T04:03:34.661Z,6.65
2022-10-08T04:05:37.715Z,6.60
2022-10-08T04:07:40.348Z,6.55
2022-10-08T04:09:42.949Z,6.32
2022-10-08T04:11:45.498Z,6.63
2022-10-08T04:13:49.434Z,6.35
2022-10-08T04:15:52.081Z,6.85
2022-10-08T04:17:54.701Z,7.25
2022-10-08T04:19:57.296Z,7.22
2022-10-08T04:21:59.840Z,6.47
2022-10-08T04:24:02.421Z,6.40
2022-10-08T04:26:05.327Z,7.13
2022-10-08T04:28:07.951Z,6.15
2022-10-08T04:30:12.951Z,6.55
2022-10-08T04:32:17.127Z,6.53
2022-10-08T04:34:19.687Z,6.00
2022-10-08T04:36:23.760Z,7.03
2022-10-08T04:38:26.449Z,6.70
2022-10-08T04:40:29.011Z,6.32
2022-10-08T04:42:31.597Z,6.60
2022-10-08T04:44:34.183Z,6.57
2022-10-08T04:46:38.124Z,7.40
2022-10-08T04:48:41.398Z,6.88
2022-10-08T04:50:43.962Z,6.80
2022-10-08T04:52:46.718Z,7.13
2022-10-08T04:54:50.051Z,7.30
2022-10-08T04:56:52.658Z,6.10
2022-10-08T04:58:56.049Z,6.18
2022-10-08T05:00:58.611Z,6.05
2022-10-08T05:03:02.626Z,5.93
2022-10-08T05:05:05.976Z,6.22
2022-10-08T05:07:08.527Z,6.38
2022-10-08T05:09:11.096Z,5.93
2022-10-08T05:11:14.431Z,7.03
2022-10-08T05:13:17.075Z,6.60
2022-10-08T05:15:19.669Z,6.13
2022-10-08T05:17:22.247Z,5.28
2022-10-08T05:19:26.482Z,7.75
2022-10-08T05:21:31.259Z,6.85
2022-10-08T05:23:34.495Z,6.18
2022-10-08T05:25:37.700Z,7.30
2022-10-08T05:27:40.336Z,6.20
2022-10-08T05:29:42.921Z,6.40
2022-10-08T05:31:45.815Z,6.28
2022-10-08T05:33:48.355Z,5.82
2022-10-08T05:35:52.388Z,6.05
2022-10-08T05:37:55.006Z,6.13
2022-10-08T05:39:57.566Z,5.63
2022-10-08T05:42:00.126Z,5.07
2022-10-08T05:44:02.921Z,5.75
2022-10-08T05:46:05.849Z,5.63
2022-10-08T05:48:08.453Z,5.60
2022-10-08T05:50:11.030Z,4.93
2022-10-08T05:52:14.965Z,5.30
2022-10-08T05:54:18.702Z,5.20
2022-10-08T05:56:22.963Z,5.10
2022-10-08T05:58:30.295Z,4.90
2022-10-08T06:00:33.146Z,4.85
2022-10-08T06:02:35.736Z,4.78
2022-10-08T06:04:38.448Z,5.53
2022-10-08T06:06:42.847Z,4.70
2022-10-08T06:08:47.108Z,5.07
2022-10-08T06:10:50.756Z,4.68
2022-10-08T06:12:53.430Z,5.40
2022-10-08T06:14:56.122Z,4.72
2022-10-08T06:16:58.680Z,4.05
2022-10-08T06:19:03.166Z,4.65
2022-10-08T06:21:08.273Z,4.80
2022-10-08T06:23:10.850Z,4.47
2022-10-08T06:25:14.851Z,4.60
2022-10-08T06:27:17.426Z,5.30
2022-10-08T06:29:20.280Z,4.90
2022-10-08T06:31:23.120Z,4.40
2022-10-08T06:33:25.745Z,4.63
2022-10-08T06:35:28.314Z,3.92
2022-10-08T06:37:30.930Z,4.72
2022-10-08T06:39:33.503Z,3.95
2022-10-08T06:41:38.067Z,5.20
2022-10-08T06:43:40.675Z,4.45
2022-10-08T06:45:44.640Z,4.32
2022-10-08T06:47:49.401Z,4.57
2022-10-08T06:49:51.999Z,4.20
2022-10-08T06:51:54.612Z,4.45
2022-10-08T06:54:05.783Z,4.88
2022-10-08T06:56:14.360Z,3.85
2022-10-08T06:58:18.302Z,4.25
2022-10-08T07:00:21.100Z,4.10
2022-10-08T07:02:23.750Z,4.25
2022-10-08T07:04:26.432Z,3.35
2022-10-08T07:06:29.462Z,4.53
2022-10-08T07:08:32.247Z,3.90
2022-10-08T07:10:34.948Z,3.95
2022-10-08T07:12:37.617Z,3.42
2022-10-08T07:14:41.536Z,3.22
2022-10-08T07:16:44.245Z,3.13
2022-10-08T07:18:48.068Z,4.30
2022-10-08T07:20:56.554Z,3.38
2022-10-08T07:22:59.162Z,3.40
2022-10-08T07:25:01.779Z,3.30
2022-10-08T07:27:04.525Z,2.78
2022-10-08T07:29:09.273Z,2.90
2022-10-08T07:31:15.490Z,2.83
2022-10-08T07:33:18.164Z,2.63
2022-10-08T07:35:20.783Z,2.88
2022-10-08T07:37:23.422Z,2.90
2022-10-08T07:39:26.498Z,2.88
2022-10-08T07:41:30.292Z,2.80
2022-10-08T07:43:33.018Z,2.70
2022-10-08T07:45:35.964Z,3.35
2022-10-08T07:47:39.949Z,2.97
2022-10-08T07:49:42.497Z,2.90
2022-10-08T07:51:46.142Z,3.63
2022-10-08T07:53:49.256Z,2.45
2022-10-08T07:55:51.830Z,2.60
2022-10-08T07:57:54.484Z,2.10
2022-10-08T07:59:57.082Z,2.17
2022-10-08T08:01:59.778Z,2.60
2022-10-08T08:04:06.123Z,2.20
2022-10-08T08:06:12.092Z,2.20
2022-10-08T08:08:14.804Z,2.22
2022-10-08T08:10:17.647Z,3.35
2022-10-08T08:12:20.221Z,2.53
2022-10-08T08:14:22.945Z,2.65
2022-10-08T08:16:27.219Z,2.67
2022-10-08T08:18:31.220Z,2.53
2022-10-08T08:20:35.183Z,2.67
2022-10-08T08:22:37.777Z,2.60
2022-10-08T08:24:40.438Z,2.58
2022-10-08T08:26:44.309Z,2.30
2022-10-08T08:28:51.453Z,2.50
2022-10-08T08:30:54.016Z,2.28
2022-10-08T08:32:56.629Z,2.50
2022-10-08T08:34:59.307Z,2.60
2022-10-08T08:37:03.254Z,2.95
2022-10-08T08:39:07.243Z,2.70
2022-10-08T08:41:23.990Z,2.78
2022-10-08T08:43:26.596Z,2.58
2022-10-08T08:45:46.355Z,2.67
2022-10-08T08:47:57.028Z,2.90
2022-10-08T08:50:04.289Z,2.50
2022-10-08T08:52:12.045Z,2.70
2022-10-08T08:54:14.771Z,2.45
2022-10-08T08:56:20.858Z,2.80
2022-10-08T08:58:34.785Z,2.60
2022-10-08T09:00:41.670Z,2.63
2022-10-08T09:02:53.016Z,2.03
2022-10-08T09:05:00.395Z,2.30
2022-10-08T09:07:07.840Z,2.40
2022-10-08T09:09:28.098Z,2.63
2022-10-08T09:11:31.336Z,2.55
2022-10-08T09:13:38.654Z,1.90
2022-10-08T09:15:43.230Z,2.03
2022-10-08T09:17:49.523Z,2.15
2022-10-08T09:19:52.404Z,2.17
2022-10-08T09:21:55.026Z,2.00
2022-10-08T09:23:57.693Z,2.50
2022-10-08T09:26:05.047Z,2.45
2022-10-08T09:28:07.946Z,2.40
2022-10-08T09:30:28.889Z,2.10
2022-10-08T09:32:33.296Z,2.15
2022-10-08T09:34:36.365Z,2.13
2022-10-08T09:36:43.152Z,2.13
2022-10-08T09:38:45.794Z,2.00
2022-10-08T09:41:02.178Z,2.28
2022-10-08T09:43:17.691Z,3.20
2022-10-08T09:45:33.982Z,2.63
2022-10-08T09:47:36.671Z,2.00
2022-10-08T09:49:39.317Z,2.13
2022-10-08T09:51:43.198Z,2.00
2022-10-08T09:53:49.621Z,1.80
2022-10-08T09:55:56.073Z,1.92
2022-10-08T09:58:01.162Z,2.03
2022-10-08T10:00:06.705Z,1.85
2022-10-08T10:02:28.658Z,2.42
2022-10-08T10:04:36.284Z,1.75
2022-10-08T10:06:45.486Z,2.38
2022-10-08T10:08:56.292Z,2.00
2022-10-08T10:10:59.236Z,1.80
2022-10-08T10:13:07.829Z,2.00
2022-10-08T10:15:16.425Z,1.92
2022-10-08T10:17:30.158Z,2.00
2022-10-08T10:19:39.961Z,2.03
2022-10-08T10:21:52.648Z,1.98
2022-10-08T10:24:06.898Z,1.90
2022-10-08T10:26:14.202Z,2.00
2022-10-08T10:28:24.192Z,1.88
2022-10-08T10:30:28.790Z,2.15
2022-10-08T10:32:38.034Z,1.80
2022-10-08T10:34:44.096Z,2.10
2022-10-08T10:36:53.676Z,2.22
2022-10-08T10:39:10.204Z,2.17
2022-10-08T10:41:20.420Z,2.05
2022-10-08T10:43:40.405Z,2.40
2022-10-08T10:45:48.772Z,1.92
2022-10-08T10:47:51.983Z,2.30
2022-10-08T10:49:55.052Z,1.75
2022-10-08T10:52:05.933Z,2.00
2022-10-08T10:54:32.386Z,2.13
2022-10-08T10:56:39.015Z,1.98
2022-10-08T10:58:55.220Z,1.73
2022-10-08T11:01:06.032Z,2.03
2022-10-08T11:03:17.260Z,2.15
2022-10-08T11:05:24.416Z,2.08
2022-10-08T11:07:41.638Z,1.73
2022-10-08T11:09:51.498Z,1.83
2022-10-08T11:12:00.954Z,1.73
2022-10-08T11:14:22.283Z,1.70
2022-10-08T11:16:35.719Z,1.98
2022-10-08T11:18:48.976Z,1.65
2022-10-08T11:21:03.559Z,1.80
2022-10-08T11:23:16.556Z,1.95
2022-10-08T11:25:29.104Z,1.75
2022-10-08T11:27:42.296Z,2.50
2022-10-08T11:29:56.597Z,1.58
2022-10-08T11:31:59.840Z,1.60
2022-10-08T11:34:04.634Z,1.58
2022-10-08T11:36:20.190Z,1.77
2022-10-08T11:38:29.862Z,2.03
2022-10-08T11:40:38.397Z,1.77
2022-10-08T11:42:49.175Z,1.63
2022-10-08T11:44:53.523Z,2.03
2022-10-08T11:47:35.257Z,1.65
2022-10-08T11:49:52.381Z,1.75
2022-10-08T11:51:55.369Z,1.67
2022-10-08T11:54:07.004Z,1.50
2022-10-08T11:56:12.543Z,1.48
2022-10-08T11:58:21.997Z,1.65
2022-10-08T12:00:39.825Z,2.03
2022-10-08T12:02:46.266Z,1.30
2022-10-08T12:04:50.068Z,1.35
2022-10-08T12:07:04.189Z,1.30
2022-10-08T12:09:08.857Z,1.98
2022-10-08T12:11:41.850Z,2.03
2022-10-08T12:13:45.174Z,2.10
2022-10-08T12:15:57.270Z,1.90
2022-10-08T12:18:01.612Z,2.13
2022-10-08T12:20:20.192Z,2.03
2022-10-08T12:22:42.664Z,1.85
2022-10-08T12:24:56.585Z,1.90
2022-10-08T12:27:27.772Z,1.50
2022-10-08T12:29:53.939Z,1.75
2022-10-08T12:32:03.140Z,1.33
2022-10-08T12:34:17.409Z,1.40
2022-10-08T12:36:27.445Z,1.38
2022-10-08T12:38:38.914Z,1.50
2022-10-08T12:40:44.193Z,1.55
2022-10-08T12:42:50.472Z,1.60
2022-10-08T12:45:05.374Z,1.65
2022-10-08T12:47:20.050Z,1.33
2022-10-08T12:49:30.433Z,1.70
2022-10-08T12:51:41.337Z,1.80
2022-10-08T12:53:45.758Z,1.45
2022-10-08T12:55:53.395Z,1.50
2022-10-08T12:57:56.209Z,1.45
2022-10-08T13:00:00.612Z,1.50
2022-10-08T13:02:03.339Z,1.60
2022-10-08T13:04:19.182Z,1.90
2022-10-08T13:06:31.747Z,1.50
2022-10-08T13:08:38.640Z,1.70
2022-10-08T13:10:43.961Z,1.50
2022-10-08T13:13:00.490Z,1.55
2022-10-08T13:15:08.712Z,2.10
2022-10-08T13:17:29.680Z,1.63
2022-10-08T13:19:36.811Z,1.20
2022-10-08T13:21:40.122Z,1.38
2022-10-08T13:23:44.777Z,1.92
2022-10-08T13:25:47.520Z,1.40
2022-10-08T13:28:08.522Z,1.20
2022-10-08T13:30:32.880Z,1.80
2022-10-08T13:32:38.205Z,1.42
2022-10-08T13:34:44.712Z,1.30
2022-10-08T13:36:53.463Z,1.63
2022-10-08T13:38:56.186Z,1.25
2022-10-08T13:41:03.996Z,1.35
2022-10-08T13:43:07.706Z,1.35
2022-10-08T13:45:17.093Z,1.30
2022-10-08T13:47:34.592Z,1.50
2022-10-08T13:49:37.448Z,1.20
2022-10-08T13:51:42.241Z,1.10
2022-10-08T13:53:45.863Z,1.60
2022-10-08T13:55:50.471Z,1.05
2022-10-08T13:57:54.684Z,1.33
2022-10-08T13:59:58.148Z,1.38
2022-10-08T14:02:01.005Z,1.00
2022-10-08T14:04:03.622Z,1.20
2022-10-08T14:06:06.566Z,1.25
2022-10-08T14:08:15.652Z,1.20
2022-10-08T14:10:19.270Z,1.10
2022-10-08T14:12:27.346Z,1.75
2022-10-08T14:14:29.930Z,1.10
2022-10-08T14:16:32.552Z,1.30
2022-10-08T14:18:35.187Z,1.38
2022-10-08T14:20:39.203Z,1.08
2022-10-08T14:22:42.109Z,1.38
2022-10-08T14:24:46.255Z,1.20
2022-10-08T14:26:48.877Z,1.30
2022-10-08T14:28:51.655Z,1.10
2022-10-08T14:30:55.097Z,1.60
2022-10-08T14:32:58.062Z,1.30
2022-10-08T14:35:04.091Z,1.15
2022-10-08T14:37:06.765Z,2.35
2022-10-08T14:39:09.876Z,1.13
2022-10-08T14:41:16.562Z,1.33
2022-10-08T14:43:20.149Z,1.10
2022-10-08T14:45:23.192Z,1.40
2022-10-08T14:47:26.030Z,1.05
2022-10-08T14:49:28.903Z,1.20
2022-10-08T14:51:38.250Z,1.63
2022-10-08T14:53:40.872Z,1.00
2022-10-08T14:56:00.777Z,1.38
2022-10-08T14:58:07.451Z,0.80
2022-10-08T15:00:11.284Z,1.05
2022-10-08T15:02:14.094Z,1.02
2022-10-08T15:04:17.483Z,0.90
2022-10-08T15:06:20.122Z,1.17
2022-10-08T15:08:22.699Z,1.15
2022-10-08T15:10:25.643Z,1.30
2022-10-08T15:12:28.354Z,0.95
2022-10-08T15:14:37.083Z,1.30
2022-10-08T15:16:43.910Z,1.00
2022-10-08T15:18:46.559Z,0.90
2022-10-08T15:20:54.719Z,1.08
2022-10-08T15:22:57.294Z,1.25
2022-10-08T15:24:59.979Z,1.02
2022-10-08T15:27:02.562Z,1.13
2022-10-08T15:29:05.557Z,1.27
2022-10-08T15:31:14.140Z,1.30
2022-10-08T15:33:17.519Z,0.90
2022-10-08T15:35:20.654Z,0.98
2022-10-08T15:37:23.347Z,1.20
2022-10-08T15:39:26.550Z,0.88
2022-10-08T15:41:31.405Z,1.05
2022-10-08T15:43:34.830Z,1.20
2022-10-08T15:45:43.116Z,0.80
2022-10-08T15:47:49.324Z,1.20
2022-10-08T15:49:51.978Z,1.15
2022-10-08T15:51:57.910Z,1.98
2022-10-08T15:54:02.107Z,1.10
2022-10-08T15:56:05.799Z,1.05
2022-10-08T15:58:08.409Z,1.10
2022-10-08T16:00:12.867Z,1.00
2022-10-08T16:02:17.884Z,1.00
2022-10-08T16:04:22.215Z,1.42
2022-10-08T16:06:27.767Z,0.82
2022-10-08T16:08:31.923Z,0.95
2022-10-08T16:10:34.542Z,0.80
2022-10-08T16:12:37.156Z,0.80
2022-10-08T16:14:39.872Z,0.88
2022-10-08T16:16:43.036Z,1.08
2022-10-08T16:18:46.925Z,1.05
2022-10-08T16:20:52.800Z,1.13
2022-10-08T16:22:55.504Z,1.05
2022-10-08T16:24:58.133Z,1.00
2022-10-08T16:27:00.815Z,0.80
2022-10-08T16:29:05.601Z,1.30
2022-10-08T16:31:11.729Z,0.90
2022-10-08T16:33:14.488Z,1.20
2022-10-08T16:35:17.843Z,0.90
2022-10-08T16:37:22.317Z,1.23
2022-10-08T16:39:25.273Z,1.20
2022-10-08T16:41:30.374Z,1.02
2022-10-08T16:43:32.986Z,1.17
2022-10-08T16:45:36.682Z,1.20
2022-10-08T16:47:39.406Z,1.40
2022-10-08T16:49:42.159Z,1.23
2022-10-08T16:51:45.239Z,1.23
2022-10-08T16:53:50.316Z,1.15
2022-10-08T16:55:52.886Z,1.20
2022-10-08T16:57:55.811Z,1.20
2022-10-08T17:00:00.017Z,1.00
2022-10-08T17:02:03.383Z,1.10
2022-10-08T17:04:07.532Z,1.30
2022-10-08T17:06:11.080Z,1.60
2022-10-08T17:08:13.716Z,1.40
2022-10-08T17:10:18.425Z,1.40
2022-10-08T17:12:22.029Z,1.30
2022-10-08T17:14:24.931Z,1.35
2022-10-08T17:16:29.554Z,1.30
2022-10-08T17:18:33.173Z,1.48
2022-10-08T17:20:36.587Z,1.65
2022-10-08T17:22:39.243Z,1.80
2022-10-08T17:24:42.503Z,1.63
2022-10-08T17:26:46.617Z,1.35
2022-10-08T17:28:51.713Z,1.85
2022-10-08T17:30:54.713Z,1.58
2022-10-08T17:32:57.362Z,1.40
2022-10-08T17:34:59.961Z,1.52
2022-10-08T17:37:02.578Z,1.40
2022-10-08T17:39:07.432Z,1.50
2022-10-08T17:41:11.854Z,2.00
2022-10-08T17:43:15.800Z,1.40
2022-10-08T17:45:18.465Z,1.30
2022-10-08T17:47:23.622Z,1.30
2022-10-08T17:49:28.460Z,1.38
2022-10-08T17:51:31.730Z,1.50
2022-10-08T17:53:34.511Z,1.60
2022-10-08T17:55:37.107Z,1.73
2022-10-08T17:57:40.260Z,1.48
2022-10-08T17:59:44.470Z,1.40
2022-10-08T18:01:47.147Z,1.60
2022-10-08T18:03:54.083Z,1.80
2022-10-08T18:05:58.558Z,1.52
2022-10-08T18:08:01.225Z,1.48
2022-10-08T18:10:05.510Z,1.40
2022-10-08T18:12:08.651Z,1.40
2022-10-08T18:14:11.695Z,1.73
2022-10-08T18:16:18.130Z,1.58
2022-10-08T18:18:20.762Z,1.73
2022-10-08T18:20:23.387Z,1.90
2022-10-08T18:22:26.292Z,2.30
2022-10-08T18:24:29.257Z,1.85
2022-10-08T18:26:34.776Z,1.50
2022-10-08T18:28:37.817Z,1.75
2022-10-08T18:30:40.808Z,1.48
2022-10-08T18:35:11.999Z,1.80
2022-10-08T18:37:14.638Z,1.73
2022-10-08T18:39:21.575Z,2.45
2022-10-08T18:41:31.297Z,1.90
2022-10-08T18:43:36.176Z,1.80
2022-10-08T18:45:39.097Z,2.33
2022-10-08T18:47:41.860Z,2.38
2022-10-08T18:49:45.891Z,2.10
2022-10-08T18:51:50.627Z,2.00
2022-10-08T18:53:54.807Z,2.13
2022-10-08T18:55:57.503Z,1.95
2022-10-08T18:58:00.120Z,2.22
2022-10-08T19:00:03.130Z,2.03
2022-10-08T19:02:05.912Z,2.72
2022-10-08T19:04:12.078Z,2.00
2022-10-08T19:06:16.626Z,2.65
2022-10-08T19:08:19.779Z,2.53
2022-10-08T19:10:22.545Z,2.33
2022-10-08T19:12:25.280Z,2.13
2022-10-08T19:14:28.976Z,1.95
2022-10-08T19:16:32.167Z,2.33
2022-10-08T19:18:34.963Z,2.50
2022-10-08T19:20:37.741Z,2.15
2022-10-08T19:22:41.780Z,2.20
2022-10-08T19:24:44.559Z,2.60
2022-10-08T19:26:48.422Z,2.63
2022-10-08T19:28:52.919Z,2.40
2022-10-08T19:30:55.635Z,2.67
2022-10-08T19:32:58.345Z,2.20
2022-10-08T19:35:01.108Z,2.58
2022-10-08T19:37:03.950Z,2.35
2022-10-08T19:39:10.594Z,2.05
2022-10-08T19:43:15.769Z,2.40
2022-10-08T19:45:18.540Z,2.53
2022-10-08T19:47:21.879Z,2.78
2022-10-08T19:49:24.635Z,3.45
2022-10-08T19:51:28.404Z,2.85
2022-10-08T19:53:31.092Z,3.00
2022-10-08T19:55:38.797Z,3.10
2022-10-08T19:57:41.612Z,3.90
2022-10-08T19:59:44.313Z,3.33
2022-10-08T20:01:47.172Z,2.78
2022-10-08T20:03:52.516Z,2.88
2022-10-08T20:05:55.508Z,3.72
2022-10-08T20:07:58.139Z,2.85
2022-10-08T20:10:00.749Z,2.70
2022-10-08T20:12:05.022Z,3.58
2022-10-08T20:14:08.358Z,3.30
2022-10-08T20:16:13.432Z,3.10
2022-10-08T20:18:16.101Z,3.10
2022-10-08T20:20:32.216Z,2.80
2022-10-08T20:22:36.073Z,3.45
2022-10-08T20:24:38.741Z,3.10
2022-10-08T20:26:43.151Z,3.40
2022-10-08T20:28:49.543Z,3.45
2022-10-08T20:30:52.220Z,3.15
2022-10-08T20:32:55.105Z,2.92
2022-10-08T20:34:57.691Z,2.85
2022-10-08T20:37:02.273Z,3.40
2022-10-08T20:39:05.527Z,3.00
2022-10-08T20:41:09.200Z,3.90
2022-10-08T20:43:11.851Z,3.60
2022-10-08T20:45:16.034Z,3.28
2022-10-08T20:47:18.636Z,3.70
2022-10-08T20:49:21.329Z,3.00
2022-10-08T20:51:26.493Z,2.90
2022-10-08T20:53:29.163Z,3.55
2022-10-08T20:55:31.799Z,3.10
2022-10-08T20:57:34.445Z,3.70
2022-10-08T20:59:37.049Z,4.00
2022-10-08T21:01:41.056Z,3.80
2022-10-08T21:03:45.755Z,3.63
2022-10-08T21:05:48.426Z,4.22
2022-10-08T21:07:51.071Z,3.80
2022-10-08T21:09:53.745Z,4.10
2022-10-08T21:11:56.422Z,3.78
2022-10-08T21:14:01.473Z,3.47
2022-10-08T21:16:05.915Z,3.80
2022-10-08T21:18:10.211Z,3.35
2022-10-08T21:20:12.819Z,4.10
2022-10-08T21:22:15.399Z,3.33
2022-10-08T21:24:18.145Z,3.97
2022-10-08T21:26:22.304Z,3.65
2022-10-08T21:28:24.931Z,3.72
2022-10-08T21:30:27.576Z,3.88
2022-10-08T21:32:30.170Z,4.05
2022-10-08T21:34:34.124Z,4.35
2022-10-08T21:36:38.765Z,3.83
2022-10-08T21:38:41.588Z,3.97
2022-10-08T21:40:44.224Z,4.38
2022-10-08T21:42:47.124Z,3.90
2022-10-08T21:44:49.933Z,3.92
2022-10-08T21:46:52.546Z,4.07
2022-10-08T21:48:56.276Z,3.50
2022-10-08T21:51:02.750Z,4.38
2022-10-08T21:53:05.355Z,4.35
2022-10-08T21:55:08.998Z,4.18
2022-10-08T21:57:16.075Z,4.07
2022-10-08T21:59:18.993Z,4.10
2022-10-08T22:01:27.451Z,3.88
2022-10-08T22:03:30.210Z,4.03
2022-10-08T22:05:32.783Z,5.10
2022-10-08T22:07:36.762Z,4.30
2022-10-08T22:09:39.560Z,4.30
2022-10-08T22:11:42.372Z,3.67
2022-10-08T22:13:45.278Z,5.07
2022-10-08T22:15:52.389Z,5.20
2022-10-08T22:17:55.055Z,3.92
2022-10-08T22:19:57.636Z,4.20
2022-10-08T22:22:00.337Z,4.13
2022-10-08T22:24:05.087Z,3.92
2022-10-08T22:26:10.045Z,4.70
2022-10-08T22:28:12.729Z,4.50
2022-10-08T22:30:15.451Z,3.47
2022-10-08T22:32:18.431Z,3.60
2022-10-08T22:34:21.038Z,4.22
2022-10-08T22:36:26.241Z,4.00
2022-10-08T22:38:29.199Z,3.60
2022-10-08T22:40:33.123Z,3.67
2022-10-08T22:42:35.783Z,3.53
2022-10-08T22:44:38.387Z,3.60
2022-10-08T22:46:41.491Z,3.08
2022-10-08T22:48:44.527Z,2.95
2022-10-08T22:50:47.087Z,3.03
2022-10-08T22:52:51.104Z,3.58
2022-10-08T22:54:53.851Z,2.80
2022-10-08T22:56:57.816Z,2.35
2022-10-08T22:59:00.935Z,3.15
2022-10-08T23:01:05.851Z,2.97
2022-10-08T23:03:08.518Z,3.22
2022-10-08T23:05:11.393Z,3.10
2022-10-08T23:07:14.048Z,3.47
2022-10-08T23:09:16.647Z,4.22
2022-10-08T23:11:19.330Z,4.55
2022-10-08T23:13:23.389Z,3.90
2022-10-08T23:15:26.119Z,5.03
2022-10-08T23:17:28.755Z,5.38
2022-10-08T23:19:31.320Z,6.10
2022-10-08T23:21:34.636Z,5.68
2022-10-08T23:23:37.821Z,5.55
2022-10-08T23:25:40.431Z,5.60
2022-10-08T23:27:43.025Z,6.47
2022-10-08T23:29:46.950Z,7.07
2022-10-08T23:31:49.586Z,6.25
2022-10-08T23:33:53.922Z,6.85
2022-10-08T23:35:56.732Z,6.75
2022-10-08T23:37:59.293Z,6.93
2022-10-08T23:40:01.877Z,6.68
2022-10-08T23:42:04.699Z,6.65
2022-10-08T23:44:07.337Z,7.45
2022-10-08T23:46:12.484Z,6.20
2022-10-08T23:48:15.175Z,6.80
2022-10-08T23:50:17.825Z,6.47
2022-10-08T23:52:20.432Z,7.13
2022-10-08T23:54:23.052Z,6.20
2022-10-08T23:56:25.696Z,6.07
2022-10-08T23:58:28.377Z,7.25
